Time;durP1;ratioP1;P1;durP2;ratioP2;P2;SDS_P1;SDS_P2;PMS_P1;PMS_P2;Temp;Humidity;BMP_temperature;BMP_pressure;BME280_temperature;BME280_humidity;BME280_pressure;Samples;Min_cycle;Max_cycle;Signal;HPM_P1;HPM_P2
2024/01/12 00:02:11;;;;;;;23.03;12.80;;;2.10;99.90;;;;;;5092210;28;20181;-74
2024/01/12 00:04:36;;;;;;;25.20;15.83;;;2.10;99.90;;;;;;5091866;28;20428;-73
2024/01/12 00:07:02;;;;;;;22.60;12.80;;;2.10;99.90;;;;;;5091655;28;20219;-74
2024/01/12 00:09:27;;;;;;;22.70;14.00;;;2.10;99.90;;;;;;5092209;28;20154;-74
2024/01/12 00:11:53;;;;;;;24.77;13.43;;;2.20;99.90;;;;;;5092301;28;20161;-73
2024/01/12 00:14:18;;;;;;;26.63;12.67;;;2.20;99.90;;;;;;5092093;28;20186;-73
2024/01/12 00:16:44;;;;;;;21.30;13.00;;;2.20;99.90;;;;;;5092198;28;20212;-73
2024/01/12 00:19:11;;;;;;;26.30;13.87;;;2.20;99.90;;;;;;5092188;28;20224;-73
2024/01/12 00:21:36;;;;;;;34.13;14.30;;;2.20;99.90;;;;;;5092166;28;20158;-73
2024/01/12 00:24:02;;;;;;;28.50;14.57;;;2.20;99.90;;;;;;5091831;28;20998;-74
2024/01/12 00:26:28;;;;;;;23.90;14.00;;;2.20;99.90;;;;;;5092002;28;20200;-73
2024/01/12 00:28:53;;;;;;;25.37;13.27;;;2.20;99.90;;;;;;5092094;28;20529;-74
2024/01/12 00:31:18;;;;;;;26.13;15.37;;;2.20;99.90;;;;;;5092012;28;20158;-73
2024/01/12 00:33:44;;;;;;;28.67;12.80;;;2.20;99.90;;;;;;5091722;28;20797;-74
2024/01/12 00:36:10;;;;;;;33.23;14.80;;;2.20;99.90;;;;;;5073772;28;20173;-73
2024/01/12 00:38:35;;;;;;;27.13;13.93;;;2.10;99.90;;;;;;5091997;28;20165;-73
2024/01/12 00:41:02;;;;;;;26.00;14.63;;;2.20;99.90;;;;;;5081497;28;20173;-73
2024/01/12 00:43:28;;;;;;;31.10;13.93;;;2.20;99.90;;;;;;5091723;28;20603;-73
2024/01/12 00:45:54;;;;;;;26.17;12.47;;;2.20;99.90;;;;;;5091697;28;20487;-73
2024/01/12 00:48:20;;;;;;;24.90;12.83;;;2.20;99.90;;;;;;5091719;28;20407;-73
2024/01/12 00:50:45;;;;;;;27.93;13.70;;;2.30;99.90;;;;;;5091657;28;20404;-73
2024/01/12 00:53:11;;;;;;;28.23;13.27;;;2.30;99.90;;;;;;5091358;28;20189;-72
2024/01/12 00:55:36;;;;;;;22.27;14.40;;;2.30;99.90;;;;;;5090652;28;20191;-74
2024/01/12 00:58:02;;;;;;;23.50;14.13;;;2.30;99.90;;;;;;5091073;28;20222;-73
2024/01/12 01:00:28;;;;;;;22.13;14.60;;;2.30;99.90;;;;;;5091131;28;20162;-73
2024/01/12 01:02:53;;;;;;;27.70;15.40;;;2.30;99.90;;;;;;5091397;28;20173;-74
2024/01/12 01:05:19;;;;;;;24.63;13.03;;;2.30;99.90;;;;;;5090942;28;20190;-74
2024/01/12 01:07:44;;;;;;;23.63;13.50;;;2.30;99.90;;;;;;5091005;28;20166;-74
2024/01/12 01:10:10;;;;;;;21.00;12.30;;;2.30;99.90;;;;;;5091670;28;20237;-73
2024/01/12 01:12:36;;;;;;;24.53;13.23;;;2.30;99.90;;;;;;5091572;28;20158;-73
2024/01/12 01:15:04;;;;;;;27.97;14.80;;;2.30;99.90;;;;;;5073131;28;20415;-74
2024/01/12 01:17:29;;;;;;;26.40;14.93;;;2.30;99.90;;;;;;5091468;28;20212;-72
2024/01/12 01:19:55;;;;;;;28.10;13.50;;;2.30;99.90;;;;;;5093341;28;20407;-74
2024/01/12 01:22:21;;;;;;;32.93;14.33;;;2.30;99.90;;;;;;5077109;28;20586;-74
2024/01/12 01:24:46;;;;;;;31.33;16.63;;;2.30;99.90;;;;;;5094842;28;20604;-74
2024/01/12 01:27:13;;;;;;;29.60;14.90;;;2.30;99.90;;;;;;5076989;28;20664;-74
2024/01/12 01:29:38;;;;;;;26.43;13.83;;;2.40;99.90;;;;;;5095289;28;20158;-74
2024/01/12 01:32:04;;;;;;;22.03;12.80;;;2.30;99.90;;;;;;5095220;28;20398;-75
2024/01/12 01:34:29;;;;;;;31.90;13.90;;;2.40;99.90;;;;;;5094614;28;20196;-73
2024/01/12 01:36:58;;;;;;;25.33;14.70;;;2.40;99.90;;;;;;5095088;28;20581;-73
2024/01/12 01:39:24;;;;;;;25.87;15.17;;;2.40;99.90;;;;;;5094879;28;20268;-73
2024/01/12 01:41:49;;;;;;;41.07;17.13;;;2.40;99.90;;;;;;5076994;28;20902;-73
2024/01/12 01:44:15;;;;;;;32.40;14.70;;;2.40;99.90;;;;;;5094461;28;20526;-74
2024/01/12 01:46:40;;;;;;;32.80;15.77;;;2.40;99.90;;;;;;5094530;28;20197;-74
2024/01/12 01:49:06;;;;;;;29.23;14.70;;;2.40;99.90;;;;;;5094820;28;20212;-74
2024/01/12 01:51:32;;;;;;;28.30;13.90;;;2.40;99.90;;;;;;5094767;28;20284;-74
2024/01/12 01:53:57;;;;;;;29.73;15.00;;;2.40;99.90;;;;;;5094556;28;20284;-74
2024/01/12 01:56:23;;;;;;;28.03;15.43;;;2.40;99.90;;;;;;5076464;28;20264;-74
2024/01/12 01:58:48;;;;;;;28.10;14.00;;;2.40;99.90;;;;;;5094655;28;20165;-74
2024/01/12 02:01:15;;;;;;;30.00;14.53;;;2.40;99.90;;;;;;5094690;28;20166;-74
2024/01/12 02:03:41;;;;;;;27.10;14.97;;;2.40;99.90;;;;;;5094234;28;20238;-73
2024/01/12 02:06:07;;;;;;;22.63;14.53;;;2.40;99.90;;;;;;5094346;28;20851;-73
2024/01/12 02:08:33;;;;;;;24.60;12.97;;;2.50;99.90;;;;;;5094283;28;20545;-73
2024/01/12 02:10:59;;;;;;;26.53;15.03;;;2.50;99.90;;;;;;5094520;28;20165;-74
2024/01/12 02:13:24;;;;;;;27.43;15.60;;;2.50;99.90;;;;;;5094404;28;20498;-74
2024/01/12 02:15:50;;;;;;;34.73;14.80;;;2.50;99.90;;;;;;5094318;28;20309;-74
2024/01/12 02:18:16;;;;;;;34.37;15.27;;;2.50;99.90;;;;;;5094190;28;20166;-74
2024/01/12 02:20:42;;;;;;;23.90;14.47;;;2.50;99.90;;;;;;5094264;28;20198;-74
2024/01/12 02:23:07;;;;;;;28.10;15.50;;;2.50;99.90;;;;;;5094206;28;20537;-74
2024/01/12 02:25:33;;;;;;;29.63;16.00;;;2.50;99.90;;;;;;5093944;28;20399;-73
2024/01/12 02:27:59;;;;;;;31.20;15.00;;;2.50;99.90;;;;;;5076042;28;20170;-74
2024/01/12 02:30:24;;;;;;;21.40;14.30;;;2.40;99.90;;;;;;5093485;28;20643;-74
2024/01/12 02:32:50;;;;;;;25.13;15.20;;;2.40;99.90;;;;;;5093446;28;20223;-73
2024/01/12 02:35:15;;;;;;;23.57;14.97;;;2.40;99.90;;;;;;5094058;28;20225;-73
2024/01/12 02:37:41;;;;;;;28.83;15.33;;;2.40;99.90;;;;;;5093898;28;20245;-75
2024/01/12 02:40:07;;;;;;;29.33;15.50;;;2.40;99.90;;;;;;5075838;28;20170;-73
2024/01/12 02:42:32;;;;;;;24.13;14.20;;;2.40;99.90;;;;;;5075647;28;20675;-73
2024/01/12 02:44:58;;;;;;;23.60;15.00;;;2.40;99.90;;;;;;5093509;28;20423;-73
2024/01/12 02:47:23;;;;;;;25.70;15.47;;;2.50;99.90;;;;;;5093627;28;20193;-74
2024/01/12 02:49:49;;;;;;;30.40;15.87;;;2.50;99.90;;;;;;5093816;28;20165;-73
2024/01/12 02:52:15;;;;;;;31.67;15.57;;;2.50;99.90;;;;;;5093567;28;20177;-73
2024/01/12 02:54:40;;;;;;;22.83;15.27;;;2.50;99.90;;;;;;5075250;28;20556;-73
2024/01/12 02:57:06;;;;;;;29.20;13.73;;;2.60;99.90;;;;;;5093390;28;20165;-73
2024/01/12 02:59:31;;;;;;;32.73;15.10;;;2.60;99.90;;;;;;5093533;28;20216;-73
2024/01/12 03:01:56;;;;;;;28.00;16.10;;;2.60;99.90;;;;;;5093277;28;20644;-74
2024/01/12 03:04:22;;;;;;;28.27;15.17;;;2.60;99.90;;;;;;5075067;28;20256;-74
2024/01/12 03:06:48;;;;;;;22.90;14.83;;;2.60;99.90;;;;;;5093264;28;20239;-74
2024/01/12 03:09:13;;;;;;;35.53;17.80;;;2.60;99.90;;;;;;5092769;28;20407;-74
2024/01/12 03:11:39;;;;;;;23.93;15.03;;;2.60;99.90;;;;;;5092411;28;20625;-74
2024/01/12 03:14:04;;;;;;;30.03;16.80;;;2.60;99.90;;;;;;5092814;28;20217;-74
2024/01/12 03:16:30;;;;;;;28.57;16.20;;;2.60;99.90;;;;;;5074919;28;20640;-75
2024/01/12 03:18:56;;;;;;;31.90;16.90;;;2.60;99.90;;;;;;5074916;28;20174;-74
2024/01/12 03:21:21;;;;;;;31.20;16.23;;;2.60;99.90;;;;;;5093098;28;20170;-74
2024/01/12 03:23:47;;;;;;;30.80;17.57;;;2.70;99.90;;;;;;5092719;28;20196;-74
2024/01/12 03:26:13;;;;;;;30.00;17.67;;;2.70;99.90;;;;;;5092662;28;20549;-74
2024/01/12 03:28:39;;;;;;;39.43;19.10;;;2.70;99.90;;;;;;5075138;28;20403;-75
2024/01/12 03:31:06;;;;;;;23.93;16.47;;;2.60;99.90;;;;;;5092777;28;20249;-74
2024/01/12 03:33:32;;;;;;;37.10;17.63;;;2.70;99.90;;;;;;5092617;28;20181;-74
2024/01/12 03:35:57;;;;;;;40.57;18.13;;;2.70;99.90;;;;;;5092845;28;20403;-74
2024/01/12 03:38:23;;;;;;;42.00;20.30;;;2.70;99.90;;;;;;5092860;28;20245;-71
2024/01/12 03:40:48;;;;;;;31.20;19.33;;;2.70;99.90;;;;;;5092827;28;20252;-72
2024/01/12 03:43:14;;;;;;;33.00;19.70;;;2.70;99.90;;;;;;5073952;28;20587;-72
2024/01/12 03:45:39;;;;;;;33.50;18.30;;;2.60;99.90;;;;;;5092313;28;20165;-72
2024/01/12 03:48:06;;;;;;;31.37;17.90;;;2.60;99.90;;;;;;5074430;28;20546;-72
2024/01/12 03:50:32;;;;;;;28.70;16.57;;;2.60;99.90;;;;;;5092642;28;20162;-72
2024/01/12 03:52:57;;;;;;;46.60;20.67;;;2.60;99.90;;;;;;5092244;28;20449;-72
2024/01/12 03:55:23;;;;;;;34.97;18.83;;;2.60;99.90;;;;;;5092138;28;20166;-72
2024/01/12 03:57:48;;;;;;;40.50;20.10;;;2.60;99.90;;;;;;5092432;28;20219;-73
2024/01/12 04:00:14;;;;;;;38.50;19.60;;;2.60;99.90;;;;;;5092348;28;20559;-72
2024/01/12 04:02:39;;;;;;;31.63;19.43;;;2.60;99.90;;;;;;5092278;28;20173;-72
2024/01/12 04:05:05;;;;;;;39.00;20.07;;;2.60;99.90;;;;;;5091949;28;20192;-72
2024/01/12 04:07:31;;;;;;;37.73;18.60;;;2.60;99.90;;;;;;5073967;28;20663;-72
2024/01/12 04:09:56;;;;;;;37.13;19.17;;;2.60;99.90;;;;;;5092357;28;20162;-72
2024/01/12 04:12:22;;;;;;;52.00;21.87;;;2.70;99.90;;;;;;5092274;28;20158;-72
2024/01/12 04:14:47;;;;;;;35.73;18.93;;;2.70;99.90;;;;;;5091853;28;20181;-72
2024/01/12 04:17:13;;;;;;;46.00;20.90;;;2.60;99.90;;;;;;5092045;28;20177;-72
2024/01/12 04:19:38;;;;;;;43.03;20.80;;;2.60;99.90;;;;;;5092197;28;20688;-72
2024/01/12 04:22:04;;;;;;;39.63;22.10;;;2.70;99.90;;;;;;5092079;28;20186;-72
2024/01/12 04:24:31;;;;;;;42.63;20.60;;;2.60;99.90;;;;;;5091910;28;20550;-73
2024/01/12 04:26:56;;;;;;;41.50;20.93;;;2.60;99.90;;;;;;5073919;28;20189;-73
2024/01/12 04:29:22;;;;;;;38.80;19.67;;;2.70;99.90;;;;;;5091943;28;20403;-73
2024/01/12 04:31:47;;;;;;;49.30;20.20;;;2.70;99.90;;;;;;5073926;28;20191;-74
2024/01/12 04:34:14;;;;;;;41.73;20.00;;;2.70;99.90;;;;;;5091707;28;20181;-73
2024/01/12 04:36:39;;;;;;;38.60;19.27;;;2.70;99.90;;;;;;5091922;28;20193;-73
2024/01/12 04:39:05;;;;;;;46.07;17.63;;;2.70;99.90;;;;;;5091883;28;20488;-73
2024/01/12 04:41:30;;;;;;;47.20;20.20;;;2.70;99.90;;;;;;5091758;28;20170;-72
2024/01/12 04:43:56;;;;;;;37.17;17.73;;;2.70;99.90;;;;;;5091407;28;20181;-72
2024/01/12 04:46:21;;;;;;;52.50;19.93;;;2.70;99.90;;;;;;5091684;28;20229;-72
2024/01/12 04:48:47;;;;;;;55.13;21.30;;;2.80;99.90;;;;;;5091911;28;20172;-72
2024/01/12 04:51:12;;;;;;;33.80;18.40;;;2.80;99.90;;;;;;5091760;28;20540;-73
2024/01/12 04:53:38;;;;;;;38.77;19.40;;;2.80;99.90;;;;;;5091557;28;20196;-73
2024/01/12 04:56:04;;;;;;;46.50;21.80;;;2.80;99.90;;;;;;5095605;28;20565;-73
2024/01/12 04:58:29;;;;;;;52.13;23.00;;;2.80;99.90;;;;;;5095538;28;20180;-73
2024/01/12 05:00:55;;;;;;;45.73;21.83;;;2.90;99.90;;;;;;5095308;28;20168;-73
2024/01/12 05:03:20;;;;;;;42.47;20.50;;;2.90;99.90;;;;;;5095392;28;20185;-73
2024/01/12 05:05:46;;;;;;;42.60;22.20;;;2.90;99.90;;;;;;5095407;28;20197;-73
2024/01/12 05:08:12;;;;;;;43.47;22.30;;;2.90;99.90;;;;;;5095728;28;20154;-73
2024/01/12 05:10:37;;;;;;;56.00;23.60;;;2.90;99.90;;;;;;5095895;28;20169;-73
2024/01/12 05:13:03;;;;;;;48.57;20.90;;;2.90;99.90;;;;;;5095398;28;20165;-73
2024/01/12 05:15:29;;;;;;;51.13;20.97;;;2.90;99.90;;;;;;5095118;28;20516;-73
2024/01/12 05:17:54;;;;;;;47.33;22.37;;;2.90;99.90;;;;;;5095566;28;20189;-73
2024/01/12 05:20:21;;;;;;;43.73;22.77;;;2.90;99.90;;;;;;5095102;28;20694;-73
2024/01/12 05:22:47;;;;;;;53.67;23.77;;;2.90;99.90;;;;;;5095256;28;20158;-73
2024/01/12 05:25:12;;;;;;;45.10;20.20;;;2.90;99.90;;;;;;5094975;28;20768;-73
2024/01/12 05:27:38;;;;;;;61.10;21.90;;;2.90;99.90;;;;;;5076977;28;20197;-73
2024/01/12 05:30:04;;;;;;;37.87;19.90;;;2.90;99.90;;;;;;5095214;28;20714;-72
2024/01/12 05:32:31;;;;;;;57.63;21.20;;;2.90;99.90;;;;;;5094694;28;20169;-72
2024/01/12 05:34:57;;;;;;;47.23;21.27;;;2.90;99.90;;;;;;5094739;28;20423;-73
2024/01/12 05:37:23;;;;;;;49.77;23.13;;;2.90;99.90;;;;;;5094978;28;20404;-73
2024/01/12 05:39:49;;;;;;;54.83;23.80;;;2.90;99.90;;;;;;5076844;28;20423;-73
2024/01/12 05:42:14;;;;;;;47.07;20.60;;;2.90;99.90;;;;;;5094827;28;20848;-73
2024/01/12 05:44:40;;;;;;;57.97;22.50;;;2.90;99.90;;;;;;5094636;28;20193;-73
2024/01/12 05:47:06;;;;;;;57.70;21.57;;;3.00;99.90;;;;;;5094759;28;20205;-73
2024/01/12 05:49:32;;;;;;;49.27;20.17;;;2.90;99.90;;;;;;5094896;28;20244;-73
2024/01/12 05:51:57;;;;;;;55.47;21.60;;;3.00;99.90;;;;;;5094706;28;20507;-73
2024/01/12 05:54:23;;;;;;;45.67;20.67;;;3.00;99.90;;;;;;5094661;28;20194;-73
2024/01/12 05:56:49;;;;;;;40.33;20.90;;;3.00;99.90;;;;;;5076370;28;20174;-73
2024/01/12 05:59:15;;;;;;;49.10;21.43;;;3.00;99.90;;;;;;5076122;28;20447;-73
2024/01/12 06:01:40;;;;;;;52.13;22.67;;;3.00;99.90;;;;;;5076060;28;20273;-72
2024/01/12 06:04:06;;;;;;;43.60;20.27;;;2.90;99.90;;;;;;5093970;28;20181;-73
2024/01/12 06:06:32;;;;;;;48.40;21.20;;;2.90;99.90;;;;;;5093995;28;20192;-73
2024/01/12 06:08:57;;;;;;;51.87;22.80;;;3.00;99.90;;;;;;5076384;28;20165;-73
2024/01/12 06:11:23;;;;;;;46.10;21.00;;;2.90;99.90;;;;;;5094241;28;20619;-73
2024/01/12 06:13:48;;;;;;;52.13;23.73;;;2.90;99.90;;;;;;5094011;28;20193;-72
2024/01/12 06:16:14;;;;;;;49.97;21.87;;;2.90;99.90;;;;;;5094215;28;20165;-73
2024/01/12 06:18:40;;;;;;;51.07;21.63;;;2.90;99.90;;;;;;5076103;28;20166;-73
2024/01/12 06:21:05;;;;;;;47.57;21.40;;;2.90;99.90;;;;;;5094237;28;20415;-73
2024/01/12 06:23:31;;;;;;;41.77;19.90;;;2.90;99.90;;;;;;5093837;28;20208;-73
2024/01/12 06:25:57;;;;;;;50.33;21.37;;;2.90;99.90;;;;;;5075893;28;20671;-73
2024/01/12 06:28:22;;;;;;;48.27;22.50;;;2.90;99.90;;;;;;5094192;28;20577;-72
2024/01/12 06:30:48;;;;;;;43.57;19.10;;;2.90;99.90;;;;;;5094047;28;20400;-72
2024/01/12 06:33:16;;;;;;;55.93;22.80;;;2.90;99.90;;;;;;5093928;28;20244;-73
2024/01/12 06:35:42;;;;;;;64.27;23.13;;;2.90;99.90;;;;;;5093766;28;20173;-72
2024/01/12 06:38:10;;;;;;;47.07;22.73;;;2.90;99.90;;;;;;5093875;28;20764;-72
2024/01/12 06:40:36;;;;;;;48.03;21.17;;;2.90;99.90;;;;;;5093867;28;20214;-73
2024/01/12 06:43:02;;;;;;;47.50;22.87;;;2.90;99.90;;;;;;5093774;28;20902;-72
2024/01/12 06:45:28;;;;;;;58.13;23.50;;;2.90;99.90;;;;;;5093551;28;20395;-72
2024/01/12 06:47:53;;;;;;;63.80;25.23;;;2.80;99.90;;;;;;5093749;28;20193;-73
2024/01/12 06:50:19;;;;;;;44.40;20.20;;;2.90;99.90;;;;;;5093793;28;20169;-72
2024/01/12 06:52:44;;;;;;;49.77;21.50;;;2.90;99.90;;;;;;5093512;28;20261;-73
2024/01/12 06:55:10;;;;;;;53.43;21.13;;;2.90;99.90;;;;;;5075078;28;20664;-72
2024/01/12 06:57:35;;;;;;;50.67;21.73;;;2.90;99.90;;;;;;5093570;28;20652;-73
2024/01/12 07:00:01;;;;;;;46.67;20.20;;;2.90;99.90;;;;;;5093598;28;20170;-72
2024/01/12 07:02:26;;;;;;;54.87;23.73;;;2.80;99.90;;;;;;5093179;28;20540;-72
2024/01/12 07:04:52;;;;;;;49.47;22.43;;;2.90;99.90;;;;;;5093177;28;20211;-72
2024/01/12 07:07:17;;;;;;;55.73;22.67;;;2.90;99.90;;;;;;5075202;28;20204;-73
2024/01/12 07:09:45;;;;;;;48.23;18.70;;;2.90;99.90;;;;;;5093401;28;20170;-72
2024/01/12 07:12:11;;;;;;;57.37;19.27;;;2.90;99.90;;;;;;5093269;28;20162;-73
2024/01/12 07:14:36;;;;;;;53.80;22.60;;;2.90;99.90;;;;;;5074711;28;20439;-72
2024/01/12 07:17:02;;;;;;;47.60;17.07;;;2.90;99.90;;;;;;5092554;28;20411;-73
2024/01/12 07:19:27;;;;;;;64.90;20.87;;;2.90;99.90;;;;;;5093485;28;20169;-72
2024/01/12 07:21:53;;;;;;;46.83;20.70;;;2.90;99.90;;;;;;5093233;28;20295;-73
2024/01/12 07:24:18;;;;;;;60.23;20.57;;;3.00;99.90;;;;;;5092795;28;20195;-73
2024/01/12 07:26:44;;;;;;;45.53;21.60;;;3.00;99.90;;;;;;5092960;28;20668;-73
2024/01/12 07:29:09;;;;;;;47.33;18.80;;;3.00;99.90;;;;;;5093080;28;20172;-73
2024/01/12 07:31:36;;;;;;;55.53;22.00;;;3.00;99.90;;;;;;5093069;28;20173;-73
2024/01/12 07:34:04;;;;;;;69.27;23.17;;;3.10;99.90;;;;;;5092608;28;20208;-73
2024/01/12 07:36:29;;;;;;;56.13;22.07;;;3.00;99.90;;;;;;5092723;28;20403;-73
2024/01/12 07:38:56;;;;;;;51.13;21.40;;;3.00;99.90;;;;;;5092784;28;20414;-73
2024/01/12 07:41:22;;;;;;;54.87;21.17;;;3.00;99.90;;;;;;5074592;28;20197;-73
2024/01/12 07:43:48;;;;;;;64.43;21.53;;;3.00;99.90;;;;;;5092377;28;20454;-73
2024/01/12 07:46:19;;;;;;;56.57;20.47;;;3.00;99.90;;;;;;5092416;28;20192;-73
2024/01/12 07:48:50;;;;;;;54.53;22.17;;;3.00;99.90;;;;;;5092116;28;20572;-73
2024/01/12 07:51:16;;;;;;;51.93;22.10;;;3.10;99.90;;;;;;5074401;28;20404;-73
2024/01/12 07:53:42;;;;;;;50.07;23.03;;;3.00;99.90;;;;;;5092246;28;20473;-73
2024/01/12 07:56:08;;;;;;;51.30;22.60;;;3.00;99.90;;;;;;5092494;28;20874;-73
2024/01/12 07:58:33;;;;;;;52.17;22.90;;;3.10;99.90;;;;;;5092425;28;20403;-73
2024/01/12 08:00:59;;;;;;;52.83;21.90;;;3.00;99.90;;;;;;5092381;28;20166;-73
2024/01/12 08:03:24;;;;;;;57.67;22.10;;;3.10;99.90;;;;;;5092259;28;20185;-73
2024/01/12 08:05:50;;;;;;;48.67;23.30;;;3.10;99.90;;;;;;5092186;28;20518;-73
2024/01/12 08:08:16;;;;;;;63.20;25.10;;;3.10;99.90;;;;;;5092196;28;20602;-73
2024/01/12 08:10:42;;;;;;;59.13;22.50;;;3.10;99.90;;;;;;5092244;28;20399;-73
2024/01/12 08:13:07;;;;;;;53.87;21.57;;;3.10;99.90;;;;;;5074163;28;20173;-73
2024/01/12 08:15:33;;;;;;;53.17;21.67;;;3.10;99.90;;;;;;5092020;28;20169;-73
2024/01/12 08:17:58;;;;;;;48.03;22.27;;;3.20;99.90;;;;;;5092245;28;20178;-73
2024/01/12 08:20:24;;;;;;;55.50;22.13;;;3.20;99.90;;;;;;5092143;28;20404;-73
2024/01/12 08:22:49;;;;;;;52.27;21.90;;;3.20;99.90;;;;;;5092038;28;20560;-73
2024/01/12 08:25:15;;;;;;;58.20;20.20;;;3.20;99.90;;;;;;5091807;28;20615;-73
2024/01/12 08:27:40;;;;;;;47.93;18.73;;;3.30;99.90;;;;;;5092021;28;20199;-73
2024/01/12 08:30:09;;;;;;;46.33;21.50;;;3.30;99.90;;;;;;5092097;28;20174;-73
2024/01/12 08:32:35;;;;;;;62.37;20.90;;;3.40;99.90;;;;;;5073874;28;20539;-73
2024/01/12 08:35:00;;;;;;;53.67;21.30;;;3.40;99.90;;;;;;5091682;28;20423;-73
2024/01/12 08:37:27;;;;;;;53.33;20.57;;;3.40;99.90;;;;;;5073755;28;20177;-72
2024/01/12 08:39:52;;;;;;;76.53;25.07;;;3.40;99.90;;;;;;5091937;28;20218;-73
2024/01/12 08:42:18;;;;;;;57.17;20.10;;;3.40;99.90;;;;;;5091914;28;20768;-73
2024/01/12 08:44:43;;;;;;;64.57;21.60;;;3.40;99.90;;;;;;5091726;28;20599;-73
2024/01/12 08:47:09;;;;;;;52.07;23.10;;;3.50;99.90;;;;;;5091771;28;20846;-73
2024/01/12 08:49:34;;;;;;;59.47;22.27;;;3.50;99.90;;;;;;5091886;28;20296;-73
2024/01/12 08:52:00;;;;;;;52.87;19.67;;;3.50;99.90;;;;;;5091603;28;20177;-73
2024/01/12 08:54:25;;;;;;;52.13;20.10;;;3.50;99.90;;;;;;5091598;28;20181;-73
2024/01/12 08:56:51;;;;;;;53.07;19.10;;;3.50;99.90;;;;;;5091737;28;20177;-72
2024/01/12 08:59:16;;;;;;;54.60;20.73;;;3.60;99.90;;;;;;5073982;28;20661;-73
2024/01/12 09:01:42;;;;;;;48.77;18.97;;;3.60;99.90;;;;;;5091847;28;20221;-73
2024/01/12 09:04:07;;;;;;;48.10;22.57;;;3.60;99.90;;;;;;5073665;28;20189;-73
2024/01/12 09:06:33;;;;;;;54.90;21.43;;;3.60;99.90;;;;;;5091755;28;20196;-73
2024/01/12 09:08:58;;;;;;;46.40;18.43;;;3.60;99.90;;;;;;5091684;28;20193;-73
2024/01/12 09:11:24;;;;;;;57.70;21.87;;;3.60;99.90;;;;;;5091661;28;20241;-74
2024/01/12 09:13:49;;;;;;;54.87;21.07;;;3.60;99.90;;;;;;5091362;28;20189;-73
2024/01/12 09:16:15;;;;;;;55.90;20.60;;;3.60;99.90;;;;;;5091651;28;20170;-73
2024/01/12 09:18:43;;;;;;;39.03;18.20;;;3.60;99.90;;;;;;5091511;28;20240;-73
2024/01/12 09:21:09;;;;;;;41.53;16.77;;;3.60;99.90;;;;;;5073334;28;20177;-73
2024/01/12 09:23:34;;;;;;;39.83;15.67;;;3.60;99.90;;;;;;5091313;28;20476;-73
2024/01/12 09:26:00;;;;;;;38.97;16.20;;;3.60;99.90;;;;;;5091390;28;20186;-73
2024/01/12 09:28:25;;;;;;;39.63;18.00;;;3.60;99.90;;;;;;5073384;28;20166;-72
2024/01/12 09:30:51;;;;;;;33.47;15.20;;;3.60;99.90;;;;;;5091842;28;20192;-70
2024/01/12 09:33:16;;;;;;;37.90;17.07;;;3.60;99.90;;;;;;5091081;28;20653;-68
2024/01/12 09:35:42;;;;;;;29.40;12.67;;;3.60;99.90;;;;;;5091149;28;20545;-69
2024/01/12 09:38:07;;;;;;;39.50;15.20;;;3.70;99.90;;;;;;5091383;28;20166;-69
2024/01/12 09:40:33;;;;;;;43.03;16.47;;;3.80;99.90;;;;;;5092460;28;20162;-69
2024/01/12 09:43:00;;;;;;;34.20;14.70;;;3.80;99.90;;;;;;5094984;28;20169;-69
2024/01/12 09:45:26;;;;;;;36.57;13.87;;;3.80;99.90;;;;;;5094839;28;20583;-68
2024/01/12 09:47:53;;;;;;;40.30;17.20;;;3.80;99.90;;;;;;5094967;28;20494;-68
2024/01/12 09:50:21;;;;;;;41.67;16.27;;;3.80;99.90;;;;;;5094961;28;20407;-69
2024/01/12 09:52:48;;;;;;;41.57;15.80;;;3.90;99.90;;;;;;5094806;28;20473;-69
2024/01/12 09:55:14;;;;;;;38.30;17.07;;;3.80;99.90;;;;;;5094599;28;20424;-69
2024/01/12 09:57:43;;;;;;;40.20;17.67;;;3.90;99.90;;;;;;5094988;28;20983;-69
2024/01/12 10:00:11;;;;;;;42.23;18.00;;;3.90;99.90;;;;;;5094780;28;20487;-69
2024/01/12 10:02:36;;;;;;;37.13;16.10;;;3.90;99.90;;;;;;5094664;28;20490;-69
2024/01/12 10:05:02;;;;;;;39.23;16.43;;;3.90;99.90;;;;;;5094260;28;20525;-69
2024/01/12 10:07:27;;;;;;;45.30;17.63;;;4.00;99.90;;;;;;5094545;28;20599;-68
2024/01/12 10:09:53;;;;;;;37.83;16.60;;;4.00;99.90;;;;;;5094634;28;20244;-68
2024/01/12 10:12:19;;;;;;;39.40;15.77;;;4.00;99.90;;;;;;5094523;28;20177;-68
2024/01/12 10:14:44;;;;;;;39.10;15.87;;;4.00;99.90;;;;;;5094244;28;20186;-69
2024/01/12 10:17:11;;;;;;;36.87;16.00;;;3.90;99.90;;;;;;5094256;28;20180;-68
2024/01/12 10:19:36;;;;;;;31.87;13.20;;;4.00;99.90;;;;;;5094313;28;20173;-69
2024/01/12 10:22:03;;;;;;;34.13;14.53;;;4.00;99.90;;;;;;5094357;28;20758;-68
2024/01/12 10:24:30;;;;;;;33.17;16.97;;;4.00;99.90;;;;;;5094002;28;20185;-69
2024/01/12 10:27:01;;;;;;;36.57;14.90;;;4.00;99.90;;;;;;5093765;28;20455;-69
2024/01/12 10:29:26;;;;;;;40.40;16.03;;;4.00;99.90;;;;;;5094174;28;20403;-69
2024/01/12 10:31:52;;;;;;;40.20;14.77;;;4.00;99.90;;;;;;5087336;28;20492;-68
2024/01/12 10:34:20;;;;;;;35.10;15.90;;;4.00;99.90;;;;;;5082755;28;20660;-69
2024/01/12 10:36:49;;;;;;;33.90;15.43;;;3.90;99.90;;;;;;5093803;28;20181;-68
2024/01/12 10:39:18;;;;;;;28.50;13.83;;;4.00;99.90;;;;;;5085331;28;20416;-68
2024/01/12 10:41:46;;;;;;;31.10;13.97;;;4.00;99.90;;;;;;5102304;28;20407;-68
2024/01/12 10:44:15;;;;;;;27.23;12.60;;;4.00;99.90;;;;;;5085107;28;20946;-68
2024/01/12 10:46:45;;;;;;;25.10;13.23;;;4.00;99.90;;;;;;5093637;28;20548;-68
2024/01/12 10:49:18;;;;;;;31.87;14.93;;;3.90;99.90;;;;;;5093917;28;20813;-68
2024/01/12 10:52:05;;;;;;;21.83;13.70;;;3.90;99.90;;;;;;5092694;28;20424;-68
2024/01/12 10:54:36;;;;;;;28.80;12.90;;;3.90;99.90;;;;;;5093460;28;20956;-68
2024/01/12 10:57:02;;;;;;;25.83;12.77;;;3.90;99.90;;;;;;5093554;28;20454;-69
2024/01/12 10:59:29;;;;;;;25.50;11.97;;;3.90;99.90;;;;;;5093540;28;20404;-68
2024/01/12 11:01:56;;;;;;;21.80;11.80;;;4.00;99.90;;;;;;5093240;28;20494;-68
2024/01/12 11:04:22;;;;;;;27.23;12.47;;;4.00;99.90;;;;;;5092930;28;20801;-68
2024/01/12 11:06:53;;;;;;;21.23;11.53;;;4.00;99.90;;;;;;5093283;28;20459;-69
2024/01/12 11:09:18;;;;;;;21.80;10.37;;;4.00;99.90;;;;;;5093409;28;20407;-70
2024/01/12 11:11:56;;;;;;;28.67;13.20;;;4.00;99.90;;;;;;5093254;28;20775;-69
2024/01/12 11:14:22;;;;;;;18.90;10.77;;;4.00;99.90;;;;;;5093135;28;20181;-69
2024/01/12 11:16:48;;;;;;;25.43;11.67;;;4.00;99.90;;;;;;5093216;28;20400;-69
2024/01/12 11:19:14;;;;;;;23.93;13.50;;;4.00;99.90;;;;;;5075033;28;20407;-69
2024/01/12 11:21:41;;;;;;;24.30;12.10;;;4.00;99.90;;;;;;5093010;28;21171;-69
2024/01/12 11:24:09;;;;;;;25.23;9.97;;;4.00;99.90;;;;;;5092774;28;20424;-68
2024/01/12 11:26:35;;;;;;;23.07;12.33;;;4.00;99.90;;;;;;5092940;28;20487;-68
2024/01/12 11:29:00;;;;;;;25.67;11.83;;;4.00;99.90;;;;;;5093036;28;20446;-69
2024/01/12 11:31:26;;;;;;;25.67;12.00;;;4.00;99.90;;;;;;5093000;28;20691;-68
2024/01/12 11:34:02;;;;;;;27.50;12.57;;;4.00;99.90;;;;;;5092535;28;20181;-69
2024/01/12 11:36:28;;;;;;;28.13;12.60;;;4.00;99.90;;;;;;5092771;28;20430;-68
2024/01/12 11:38:57;;;;;;;26.20;12.20;;;4.00;99.90;;;;;;5092778;28;20472;-68
2024/01/12 11:41:30;;;;;;;23.07;12.90;;;4.00;99.90;;;;;;5092760;28;20404;-68
2024/01/12 11:43:56;;;;;;;28.27;13.40;;;4.00;99.90;;;;;;5074305;28;20431;-69
2024/01/12 11:46:24;;;;;;;27.07;13.47;;;4.00;99.90;;;;;;5092618;28;20605;-69
2024/01/12 11:48:50;;;;;;;28.73;13.10;;;4.00;99.90;;;;;;5085008;28;20455;-69
2024/01/12 11:51:34;;;;;;;30.60;13.47;;;4.00;99.90;;;;;;5081227;28;20422;-69
2024/01/12 11:53:59;;;;;;;25.33;11.73;;;4.00;99.90;;;;;;5077666;28;20455;-69
2024/01/12 11:56:26;;;;;;;24.27;13.00;;;4.10;99.90;;;;;;5092349;28;20481;-69
2024/01/12 11:58:54;;;;;;;28.00;12.40;;;4.10;99.90;;;;;;5100741;28;20166;-69
2024/01/12 12:01:19;;;;;;;25.97;13.13;;;4.10;99.90;;;;;;5092611;28;20422;-68
2024/01/12 12:03:45;;;;;;;28.53;11.80;;;4.10;99.90;;;;;;5089935;28;20431;-69
2024/01/12 12:06:12;;;;;;;25.87;11.30;;;4.10;99.90;;;;;;5079747;28;20548;-69
2024/01/12 12:08:42;;;;;;;22.10;11.80;;;4.10;99.90;;;;;;5080171;28;20405;-68
2024/01/12 12:11:08;;;;;;;28.77;10.67;;;4.10;99.90;;;;;;5080790;28;20451;-69
2024/01/12 12:13:34;;;;;;;24.10;12.47;;;4.10;99.90;;;;;;5091963;28;20422;-69
2024/01/12 12:16:03;;;;;;;17.03;10.97;;;4.10;99.90;;;;;;5094329;28;20403;-69
2024/01/12 12:18:30;;;;;;;19.20;9.23;;;4.10;99.90;;;;;;5092421;28;20392;-71
2024/01/12 12:20:56;;;;;;;24.30;11.37;;;4.10;99.90;;;;;;5092257;28;20759;-68
2024/01/12 12:23:22;;;;;;;26.60;11.70;;;4.00;99.90;;;;;;5092038;28;20423;-68
2024/01/12 12:25:49;;;;;;;32.70;13.40;;;4.10;99.90;;;;;;5091861;28;20902;-68
2024/01/12 12:28:15;;;;;;;21.63;11.23;;;4.00;99.90;;;;;;5092129;28;20165;-67
2024/01/12 12:30:41;;;;;;;32.30;12.80;;;4.10;99.90;;;;;;5092046;28;20415;-68